Pagina principală
METAR-TAF:

METAR-TAF

Aeroporturi :

Yacuíba, Bolivia

Latitudine: 21-57S, longitudine: 063-39W, elevație: 645 m

METAR: lipsă

Ora: 01:54 (05:54 UTC)

Prognoză

Raportul a fost făcut în urmă cu 25 ore și 54 de minute, la 04:00 UTC
Prognoză valabilă de la 26 ora 06 UTC la 27 ora 06 UTC
Vânt kt de la Nord
Vizibilitate de 10 km sau mai mult
Nori împrăștiați la o înălțime de 1700 picior
Nori fragmentați la o înălțime de 7000 picior

TAF: SLYA 260400Z 2606/2706 00000KT 9999 SCT017 BKN070 TX12/2619Z TN08/2610Z

Observații și prognoze meteo pentru peste 4.000 de aeroporturi (rapoarte METAR și TAF).

Stațiile disponibile sunt reprezentate pe hartă prin puncte galbene și roșii.

Țineți indicatorul mouse-ului pe punctul dorit pentru a vedea denumirea stației.

Apoi, faceți clic pentru a vedea observațiile și prognozele meteorologice.

Pentru a schimba harta: Pentru mărire, faceți clic pe butoanele verzi cu cruce neagră; pentru micșorare, pe butonul verde cu o liniuță; pentru hărți învecinate, pe săgețile verzi.


METAR-TAF: